Time;durP1;ratioP1;P1;durP2;ratioP2;P2;SDS_P1;SDS_P2;PMS_P1;PMS_P2;Temp;Humidity;BMP_temperature;BMP_pressure;BME280_temperature;BME280_humidity;BME280_pressure;Samples;Min_cycle;Max_cycle;Signal;HPM_P1;HPM_P2
2022/11/28 00:01:28;;;;;;;0.60;0.60;;;;;;;;;;5014550;28;20508;-79
2022/11/28 00:03:56;;;;;;;0.60;0.60;;;;;;;;;;5030738;28;20454;-79
2022/11/28 00:06:23;;;;;;;0.60;0.60;;;;;;;;;;5016038;28;21220;-77
2022/11/28 00:08:52;;;;;;;0.60;0.60;;;;;;;;;;5013565;28;20480;-76
2022/11/28 00:11:19;;;;;;;0.67;0.67;;;;;;;;;;5030603;28;20483;-77
2022/11/28 00:13:47;;;;;;;0.60;0.60;;;;;;;;;;5017814;28;20516;-78
2022/11/28 00:16:16;;;;;;;0.60;0.50;;;;;;;;;;5017304;28;20441;-77
2022/11/28 00:18:43;;;;;;;0.60;0.60;;;;;;;;;;5007129;28;20548;-80
2022/11/28 00:21:11;;;;;;;0.60;0.60;;;;;;;;;;5013203;28;20449;-79
2022/11/28 00:23:47;;;;;;;0.60;0.60;;;;;;;;;;4999493;28;20452;-78
2022/11/28 00:26:16;;;;;;;0.60;0.50;;;;;;;;;;5026058;28;20458;-78
2022/11/28 00:28:43;;;;;;;0.60;0.57;;;;;;;;;;5027810;28;20463;-78
2022/11/28 00:31:12;;;;;;;0.60;0.53;;;;;;;;;;5027874;28;20455;-78
2022/11/28 00:33:40;;;;;;;0.60;0.60;;;;;;;;;;5013453;28;20464;-78
2022/11/28 00:36:08;;;;;;;0.70;0.70;;;;;;;;;;5014354;28;20434;-78
2022/11/28 00:38:35;;;;;;;0.60;0.50;;;;;;;;;;5014488;28;20492;-77
2022/11/28 00:41:05;;;;;;;0.60;0.60;;;;;;;;;;5026223;28;20932;-79
2022/11/28 00:43:32;;;;;;;0.60;0.60;;;;;;;;;;5026809;28;20471;-78
2022/11/28 00:46:01;;;;;;;0.60;0.60;;;;;;;;;;5011271;28;20450;-78
2022/11/28 00:48:30;;;;;;;0.60;0.60;;;;;;;;;;5010367;28;20461;-78
2022/11/28 00:51:04;;;;;;;1.30;1.10;;;;;;;;;;5003336;28;20505;-79
2022/11/28 00:53:31;;;;;;;0.60;0.60;;;;;;;;;;5007888;28;20434;-77
2022/11/28 00:55:58;;;;;;;0.60;0.60;;;;;;;;;;5011131;28;20459;-78
2022/11/28 00:58:28;;;;;;;0.60;0.60;;;;;;;;;;5030112;28;20527;-78
2022/11/28 01:00:56;;;;;;;0.60;0.60;;;;;;;;;;5026335;28;20456;-78
2022/11/28 01:03:23;;;;;;;0.60;0.60;;;;;;;;;;5010083;28;20449;-78
2022/11/28 01:05:52;;;;;;;0.70;0.70;;;;;;;;;;5005363;28;20464;-77
2022/11/28 01:08:19;;;;;;;0.60;0.50;;;;;;;;;;5012751;28;20533;-77
2022/11/28 01:10:46;;;;;;;0.70;0.70;;;;;;;;;;5026498;28;20463;-75
2022/11/28 01:13:13;;;;;;;0.60;0.60;;;;;;;;;;5018275;28;20573;-73
2022/11/28 01:15:41;;;;;;;0.60;0.60;;;;;;;;;;5011297;28;20934;-75
2022/11/28 01:18:08;;;;;;;0.70;0.70;;;;;;;;;;5013186;28;21034;-76
2022/11/28 01:20:57;;;;;;;0.60;0.60;;;;;;;;;;5012079;28;20441;-76
2022/11/28 01:23:24;;;;;;;0.60;0.53;;;;;;;;;;5023317;28;20468;-78
2022/11/28 01:25:53;;;;;;;1.27;1.17;;;;;;;;;;5026976;28;20430;-75
2022/11/28 01:28:21;;;;;;;0.60;0.60;;;;;;;;;;5010517;28;20479;-76
2022/11/28 01:30:48;;;;;;;0.60;0.60;;;;;;;;;;5009180;28;20462;-77
2022/11/28 01:33:16;;;;;;;0.60;0.60;;;;;;;;;;5010883;28;20993;-75
2022/11/28 01:35:52;;;;;;;0.77;0.77;;;;;;;;;;5012568;28;20422;-75
2022/11/28 01:38:21;;;;;;;0.60;0.60;;;;;;;;;;4993955;28;20530;-76
2022/11/28 01:40:48;;;;;;;1.40;1.30;;;;;;;;;;4998194;28;20493;-77
2022/11/28 01:43:15;;;;;;;0.60;0.50;;;;;;;;;;5026640;28;20556;-75
2022/11/28 01:45:42;;;;;;;0.63;0.60;;;;;;;;;;5011726;28;20530;-75
2022/11/28 01:48:13;;;;;;;0.60;0.60;;;;;;;;;;5025397;28;20462;-76
2022/11/28 01:50:41;;;;;;;1.23;1.23;;;;;;;;;;5005861;28;20983;-75
2022/11/28 01:53:09;;;;;;;0.60;0.60;;;;;;;;;;5026757;28;20429;-76
2022/11/28 01:55:41;;;;;;;1.13;0.97;;;;;;;;;;5025604;28;20457;-76
2022/11/28 01:58:08;;;;;;;0.70;0.70;;;;;;;;;;5026996;28;20474;-74
2022/11/28 02:00:35;;;;;;;0.60;0.60;;;;;;;;;;5027529;28;20497;-76
2022/11/28 02:03:05;;;;;;;0.60;0.50;;;;;;;;;;4990330;28;20475;-79
2022/11/28 02:05:32;;;;;;;1.03;0.93;;;;;;;;;;5026903;28;20558;-79
2022/11/28 02:08:00;;;;;;;0.60;0.60;;;;;;;;;;4983226;28;20460;-76
2022/11/28 02:10:31;;;;;;;0.60;0.50;;;;;;;;;;5006947;28;20513;-77
2022/11/28 02:13:08;;;;;;;0.63;0.60;;;;;;;;;;5026011;28;20457;-77
2022/11/28 02:15:45;;;;;;;0.60;0.60;;;;;;;;;;5001531;28;20493;-78
2022/11/28 02:18:18;;;;;;;0.60;0.50;;;;;;;;;;5011045;28;20532;-77
2022/11/28 02:21:03;;;;;;;0.60;0.60;;;;;;;;;;5010751;28;20585;-77
2022/11/28 02:23:37;;;;;;;0.60;0.60;;;;;;;;;;5000043;28;20457;-77
2022/11/28 02:26:22;;;;;;;0.60;0.60;;;;;;;;;;5008110;28;20988;-77
2022/11/28 02:29:00;;;;;;;0.60;0.50;;;;;;;;;;5007815;28;20457;-76
2022/11/28 02:31:37;;;;;;;0.60;0.60;;;;;;;;;;5009381;28;20485;-75
2022/11/28 02:34:08;;;;;;;0.60;0.60;;;;;;;;;;5025868;28;20441;-77
2022/11/28 02:36:40;;;;;;;1.37;1.27;;;;;;;;;;4993708;28;20450;-76
2022/11/28 02:39:09;;;;;;;0.60;0.50;;;;;;;;;;5006740;28;20457;-75
2022/11/28 02:41:41;;;;;;;0.70;0.60;;;;;;;;;;5025148;28;20459;-76
2022/11/28 02:44:10;;;;;;;0.60;0.60;;;;;;;;;;5007387;28;20783;-76
2022/11/28 02:46:46;;;;;;;0.60;0.50;;;;;;;;;;4998321;28;20450;-75
2022/11/28 02:49:18;;;;;;;0.60;0.50;;;;;;;;;;4997869;28;21027;-74
2022/11/28 02:51:48;;;;;;;0.70;0.70;;;;;;;;;;5025531;28;20434;-74
2022/11/28 02:54:17;;;;;;;0.60;0.50;;;;;;;;;;5024649;28;20931;-75
2022/11/28 02:56:46;;;;;;;0.60;0.60;;;;;;;;;;5011123;28;20445;-74
2022/11/28 02:59:28;;;;;;;0.60;0.60;;;;;;;;;;5001942;28;20508;-74
2022/11/28 03:01:59;;;;;;;2.03;1.93;;;;;;;;;;5024231;28;20433;-74
2022/11/28 03:04:37;;;;;;;0.60;0.50;;;;;;;;;;4999074;28;21119;-75
2022/11/28 03:07:13;;;;;;;0.60;0.60;;;;;;;;;;5024239;28;20490;-73
2022/11/28 03:09:55;;;;;;;0.60;0.60;;;;;;;;;;4993393;28;20427;-74
2022/11/28 03:12:31;;;;;;;0.73;0.73;;;;;;;;;;5009809;28;20812;-74
2022/11/28 03:15:08;;;;;;;0.70;0.70;;;;;;;;;;5024782;28;20805;-75
2022/11/28 03:17:47;;;;;;;0.60;0.50;;;;;;;;;;5024837;28;20866;-75
2022/11/28 03:20:22;;;;;;;0.60;0.50;;;;;;;;;;5024988;28;20839;-78
2022/11/28 03:23:04;;;;;;;0.60;0.60;;;;;;;;;;5024109;28;20987;-76
2022/11/28 03:25:38;;;;;;;0.73;0.73;;;;;;;;;;5025077;28;20906;-75
2022/11/28 03:28:22;;;;;;;0.60;0.50;;;;;;;;;;5004684;28;20466;-75
2022/11/28 03:30:58;;;;;;;1.23;1.13;;;;;;;;;;5003347;28;20488;-75
2022/11/28 03:33:29;;;;;;;0.60;0.60;;;;;;;;;;5010168;28;20429;-75
2022/11/28 03:36:03;;;;;;;0.60;0.50;;;;;;;;;;5009349;28;20426;-77
2022/11/28 03:38:35;;;;;;;0.60;0.60;;;;;;;;;;5008754;28;20468;-76
2022/11/28 03:41:08;;;;;;;0.60;0.50;;;;;;;;;;5023943;28;20438;-75
2022/11/28 03:43:40;;;;;;;0.60;0.50;;;;;;;;;;5024545;28;20470;-75
2022/11/28 03:46:10;;;;;;;0.60;0.50;;;;;;;;;;5023985;28;20484;-74
2022/11/28 03:48:41;;;;;;;1.63;1.37;;;;;;;;;;5020787;28;20771;-73
2022/11/28 03:51:14;;;;;;;0.60;0.50;;;;;;;;;;4997298;28;20853;-74
2022/11/28 03:53:47;;;;;;;0.60;0.60;;;;;;;;;;5009417;28;20441;-75
2022/11/28 03:56:23;;;;;;;0.60;0.50;;;;;;;;;;5024465;28;20431;-77
2022/11/28 03:58:55;;;;;;;0.60;0.60;;;;;;;;;;5025161;28;20803;-76
2022/11/28 04:01:47;;;;;;;0.60;0.60;;;;;;;;;;5011350;28;20445;-76
2022/11/28 04:04:21;;;;;;;0.60;0.60;;;;;;;;;;5012951;28;20436;-76
2022/11/28 04:06:54;;;;;;;0.60;0.50;;;;;;;;;;5000692;28;21040;-75
2022/11/28 04:09:29;;;;;;;0.60;0.60;;;;;;;;;;4999438;28;20460;-75
2022/11/28 04:12:16;;;;;;;0.60;0.50;;;;;;;;;;5001188;28;20461;-73
2022/11/28 04:14:50;;;;;;;0.60;0.60;;;;;;;;;;5014296;28;20596;-73
2022/11/28 04:17:26;;;;;;;0.70;0.70;;;;;;;;;;5005995;28;20482;-76
2022/11/28 04:20:12;;;;;;;0.60;0.60;;;;;;;;;;5027613;28;20454;-77
2022/11/28 04:22:44;;;;;;;0.70;0.70;;;;;;;;;;5002253;28;20472;-76
2022/11/28 04:25:16;;;;;;;0.60;0.57;;;;;;;;;;5005193;28;20437;-75
2022/11/28 04:27:49;;;;;;;0.60;0.50;;;;;;;;;;5028358;28;20532;-77
2022/11/28 04:30:18;;;;;;;0.60;0.57;;;;;;;;;;5027645;28;20504;-77
2022/11/28 04:32:47;;;;;;;0.60;0.60;;;;;;;;;;5027639;28;20434;-75
2022/11/28 04:35:22;;;;;;;0.60;0.50;;;;;;;;;;5011569;28;21025;-76
2022/11/28 04:37:54;;;;;;;0.60;0.60;;;;;;;;;;5007497;28;20453;-75
2022/11/28 04:40:48;;;;;;;0.60;0.60;;;;;;;;;;5010661;28;21040;-76
2022/11/28 04:43:24;;;;;;;0.60;0.60;;;;;;;;;;5008790;28;20479;-76
2022/11/28 04:45:59;;;;;;;0.60;0.50;;;;;;;;;;5028423;28;21036;-77
2022/11/28 04:48:28;;;;;;;0.60;0.60;;;;;;;;;;5003558;28;20446;-75
2022/11/28 04:51:08;;;;;;;0.60;0.50;;;;;;;;;;5011887;28;20454;-74
2022/11/28 04:53:42;;;;;;;0.60;0.60;;;;;;;;;;5025675;28;20455;-74
2022/11/28 04:56:15;;;;;;;0.60;0.50;;;;;;;;;;5025756;28;20427;-76
2022/11/28 04:58:44;;;;;;;0.70;0.70;;;;;;;;;;5009074;28;20476;-74
2022/11/28 05:01:14;;;;;;;0.70;0.70;;;;;;;;;;5024060;28;20450;-75
2022/11/28 05:03:40;;;;;;;0.60;0.60;;;;;;;;;;5004382;28;20572;-75
2022/11/28 05:06:08;;;;;;;0.60;0.60;;;;;;;;;;5010337;28;20455;-74
2022/11/28 05:08:35;;;;;;;2.30;1.93;;;;;;;;;;5013236;28;20433;-74
2022/11/28 05:11:03;;;;;;;0.60;0.53;;;;;;;;;;5027137;28;20462;-74
2022/11/28 05:13:30;;;;;;;0.60;0.60;;;;;;;;;;5028284;28;20470;-74
2022/11/28 05:15:59;;;;;;;0.60;0.60;;;;;;;;;;5028576;28;20796;-74
2022/11/28 05:18:25;;;;;;;1.27;1.20;;;;;;;;;;5009867;28;20433;-74
2022/11/28 05:20:52;;;;;;;0.70;0.60;;;;;;;;;;5012005;28;20433;-75
2022/11/28 05:23:19;;;;;;;0.60;0.60;;;;;;;;;;5025051;28;20446;-74
2022/11/28 05:25:46;;;;;;;0.83;0.83;;;;;;;;;;5011657;28;20430;-71
2022/11/28 05:28:14;;;;;;;0.60;0.60;;;;;;;;;;5000238;28;20459;-72
2022/11/28 05:30:41;;;;;;;0.60;0.57;;;;;;;;;;5004181;28;20477;-75
2022/11/28 05:33:08;;;;;;;0.60;0.50;;;;;;;;;;5027384;28;20442;-74
2022/11/28 05:35:37;;;;;;;0.60;0.50;;;;;;;;;;5009256;28;20458;-74
2022/11/28 05:38:04;;;;;;;0.60;0.57;;;;;;;;;;5010262;28;20512;-74
2022/11/28 05:40:42;;;;;;;0.60;0.60;;;;;;;;;;5009493;28;20452;-75
2022/11/28 05:43:10;;;;;;;6.23;2.43;;;;;;;;;;5024019;28;20481;-74
2022/11/28 05:45:40;;;;;;;0.60;0.50;;;;;;;;;;5010512;28;20909;-75
2022/11/28 05:48:06;;;;;;;1.13;1.03;;;;;;;;;;5025813;28;21126;-74
2022/11/28 05:50:33;;;;;;;4.30;1.20;;;;;;;;;;5008108;28;21044;-75
2022/11/28 05:53:05;;;;;;;0.60;0.57;;;;;;;;;;5008761;28;20426;-76
2022/11/28 05:55:32;;;;;;;0.60;0.60;;;;;;;;;;5012278;28;20477;-74
2022/11/28 05:57:58;;;;;;;0.60;0.60;;;;;;;;;;5026530;28;20819;-72
2022/11/28 06:00:25;;;;;;;0.60;0.60;;;;;;;;;;5026344;28;20488;-74
2022/11/28 06:02:54;;;;;;;0.60;0.60;;;;;;;;;;5026143;28;20456;-74
2022/11/28 06:05:26;;;;;;;0.60;0.60;;;;;;;;;;4995801;28;20934;-73
2022/11/28 06:08:09;;;;;;;0.60;0.50;;;;;;;;;;5010468;28;20430;-73
2022/11/28 06:10:36;;;;;;;1.00;1.00;;;;;;;;;;5026467;28;20441;-74
2022/11/28 06:13:03;;;;;;;0.77;0.77;;;;;;;;;;5010688;28;21048;-75
2022/11/28 06:15:30;;;;;;;0.60;0.60;;;;;;;;;;5011314;28;20487;-75
2022/11/28 06:18:04;;;;;;;0.60;0.50;;;;;;;;;;5011850;28;20517;-73
2022/11/28 06:20:33;;;;;;;1.40;0.97;;;;;;;;;;5010071;28;20499;-74
2022/11/28 06:23:00;;;;;;;0.60;0.50;;;;;;;;;;5010473;28;20441;-75
2022/11/28 06:25:26;;;;;;;0.60;0.50;;;;;;;;;;5025494;28;20496;-72
2022/11/28 06:27:53;;;;;;;0.97;0.97;;;;;;;;;;5026028;28;20997;-74
2022/11/28 06:30:20;;;;;;;0.60;0.53;;;;;;;;;;5025810;28;20851;-74
2022/11/28 06:32:50;;;;;;;0.60;0.60;;;;;;;;;;5025940;28;20474;-76
2022/11/28 06:35:18;;;;;;;2.40;2.20;;;;;;;;;;4999996;28;20440;-76
2022/11/28 06:37:45;;;;;;;0.60;0.50;;;;;;;;;;5026698;28;20492;-74
2022/11/28 06:40:12;;;;;;;0.90;0.90;;;;;;;;;;5024955;28;20481;-75
2022/11/28 06:42:38;;;;;;;0.70;0.70;;;;;;;;;;5025769;28;20460;-74
2022/11/28 06:45:20;;;;;;;0.60;0.60;;;;;;;;;;5025246;28;20497;-75
2022/11/28 06:47:47;;;;;;;0.60;0.60;;;;;;;;;;5007773;28;20445;-76
2022/11/28 06:50:14;;;;;;;1.13;0.97;;;;;;;;;;5025696;28;20445;-75
2022/11/28 06:52:42;;;;;;;0.60;0.50;;;;;;;;;;5009966;28;20564;-75
2022/11/28 06:55:09;;;;;;;1.90;1.03;;;;;;;;;;5025565;28;20456;-75
2022/11/28 06:57:36;;;;;;;0.90;0.70;;;;;;;;;;5025024;28;20977;-76
2022/11/28 07:00:04;;;;;;;0.60;0.50;;;;;;;;;;5022477;28;20534;-76
2022/11/28 07:02:34;;;;;;;0.60;0.60;;;;;;;;;;5009616;28;20434;-75
2022/11/28 07:05:01;;;;;;;0.60;0.60;;;;;;;;;;5026620;28;20488;-76
2022/11/28 07:07:28;;;;;;;0.97;0.97;;;;;;;;;;5022994;28;20489;-74
2022/11/28 07:09:56;;;;;;;0.60;0.50;;;;;;;;;;5007742;28;20437;-75
2022/11/28 07:12:22;;;;;;;0.60;0.60;;;;;;;;;;5025465;28;20901;-73
2022/11/28 07:14:50;;;;;;;0.60;0.60;;;;;;;;;;4997944;28;20539;-75
2022/11/28 07:17:17;;;;;;;0.80;0.80;;;;;;;;;;5009423;28;20461;-75
2022/11/28 07:19:43;;;;;;;0.60;0.60;;;;;;;;;;5008087;28;20442;-73
2022/11/28 07:22:14;;;;;;;0.60;0.60;;;;;;;;;;5009155;28;20766;-72
2022/11/28 07:24:41;;;;;;;0.60;0.50;;;;;;;;;;5009548;28;20433;-74
2022/11/28 07:27:09;;;;;;;0.60;0.50;;;;;;;;;;5024630;28;20457;-74
2022/11/28 07:29:35;;;;;;;0.60;0.60;;;;;;;;;;5007883;28;20499;-75
2022/11/28 07:32:02;;;;;;;0.60;0.57;;;;;;;;;;5008370;28;20480;-73
2022/11/28 07:34:29;;;;;;;0.60;0.60;;;;;;;;;;5012866;28;20442;-73
2022/11/28 07:36:56;;;;;;;0.60;0.60;;;;;;;;;;5028546;28;20430;-74
2022/11/28 07:39:24;;;;;;;0.60;0.60;;;;;;;;;;4996109;28;20468;-74
2022/11/28 07:41:50;;;;;;;0.60;0.60;;;;;;;;;;5012292;28;20448;-74
2022/11/28 07:44:19;;;;;;;0.60;0.57;;;;;;;;;;5013789;28;21026;-74
2022/11/28 07:46:46;;;;;;;12.27;2.87;;;;;;;;;;5013428;28;20438;-73
2022/11/28 07:49:19;;;;;;;0.60;0.60;;;;;;;;;;5005766;28;20461;-75
2022/11/28 07:51:46;;;;;;;0.60;0.60;;;;;;;;;;5026844;28;20527;-72
2022/11/28 07:54:24;;;;;;;0.93;0.93;;;;;;;;;;5028568;28;20959;-73
2022/11/28 07:56:52;;;;;;;0.60;0.60;;;;;;;;;;5010937;28;20444;-74
2022/11/28 07:59:40;;;;;;;0.60;0.60;;;;;;;;;;5024349;28;20461;-73
2022/11/28 08:02:08;;;;;;;0.60;0.60;;;;;;;;;;5012078;28;20446;-75
2022/11/28 08:04:36;;;;;;;0.60;0.60;;;;;;;;;;5028814;28;20446;-75
2022/11/28 08:07:12;;;;;;;0.60;0.50;;;;;;;;;;5002402;28;20544;-72
2022/11/28 08:09:39;;;;;;;0.70;0.60;;;;;;;;;;5013025;28;20436;-75
2022/11/28 08:12:08;;;;;;;0.70;0.70;;;;;;;;;;5027145;28;20493;-73
2022/11/28 08:14:51;;;;;;;0.60;0.60;;;;;;;;;;5011982;28;20445;-76
2022/11/28 08:17:18;;;;;;;0.60;0.60;;;;;;;;;;5012534;28;20840;-74
2022/11/28 08:19:44;;;;;;;0.60;0.50;;;;;;;;;;5001177;28;20442;-74
2022/11/28 08:22:11;;;;;;;1.23;1.13;;;;;;;;;;5011729;28;20452;-73
2022/11/28 08:24:41;;;;;;;0.60;0.60;;;;;;;;;;4988714;28;20453;-74
2022/11/28 08:27:08;;;;;;;0.60;0.60;;;;;;;;;;5025806;28;20442;-74
2022/11/28 08:29:35;;;;;;;0.60;0.60;;;;;;;;;;5027086;28;20468;-75
2022/11/28 08:32:03;;;;;;;1.73;1.00;;;;;;;;;;4979985;28;21032;-75
2022/11/28 08:34:30;;;;;;;0.60;0.60;;;;;;;;;;5012731;28;20430;-73
2022/11/28 08:37:00;;;;;;;0.60;0.60;;;;;;;;;;5028623;28;20442;-73
2022/11/28 08:39:26;;;;;;;0.70;0.70;;;;;;;;;;5026447;28;20969;-75
2022/11/28 08:41:55;;;;;;;0.60;0.60;;;;;;;;;;5011138;28;20437;-74
2022/11/28 08:52:12;;;;;;;0.60;0.60;;;;;;;;;;5010172;28;20448;-73
2022/11/28 08:54:40;;;;;;;0.60;0.60;;;;;;;;;;5024703;28;20448;-74
2022/11/28 08:57:07;;;;;;;0.60;0.50;;;;;;;;;;5025720;28;20866;-74
2022/11/28 08:59:33;;;;;;;1.00;0.80;;;;;;;;;;5009143;28;20496;-77
2022/11/28 09:02:00;;;;;;;0.70;0.70;;;;;;;;;;5009920;28;20425;-74
2022/11/28 09:04:27;;;;;;;0.60;0.60;;;;;;;;;;5009421;28;20543;-75
2022/11/28 09:06:54;;;;;;;0.60;0.60;;;;;;;;;;5025882;28;20450;-73
2022/11/28 09:09:22;;;;;;;0.60;0.60;;;;;;;;;;5010986;28;20512;-73
2022/11/28 09:11:52;;;;;;;0.60;0.60;;;;;;;;;;5009853;28;20479;-75
2022/11/28 09:14:19;;;;;;;0.73;0.73;;;;;;;;;;4997677;28;20511;-75
2022/11/28 09:16:49;;;;;;;0.60;0.50;;;;;;;;;;4995841;28;20438;-75
2022/11/28 09:19:16;;;;;;;0.70;0.70;;;;;;;;;;5025812;28;20501;-75
2022/11/28 09:21:43;;;;;;;0.70;0.70;;;;;;;;;;5023962;28;20439;-77
2022/11/28 09:24:12;;;;;;;0.60;0.60;;;;;;;;;;5004755;28;21033;-76
2022/11/28 09:26:41;;;;;;;0.70;0.70;;;;;;;;;;5025967;28;20491;-73
2022/11/28 09:29:08;;;;;;;0.70;0.70;;;;;;;;;;5026032;28;20477;-75
2022/11/28 09:31:34;;;;;;;0.70;0.70;;;;;;;;;;5025377;28;20444;-74
2022/11/28 09:34:02;;;;;;;0.60;0.53;;;;;;;;;;5002016;28;21175;-76
2022/11/28 09:36:30;;;;;;;0.80;0.80;;;;;;;;;;5009633;28;20458;-78
2022/11/28 09:38:58;;;;;;;0.60;0.60;;;;;;;;;;5010301;28;20457;-75
2022/11/28 09:41:31;;;;;;;0.60;0.60;;;;;;;;;;5023753;28;20550;-75
2022/11/28 09:44:01;;;;;;;0.60;0.60;;;;;;;;;;5023780;28;20484;-77
2022/11/28 09:46:32;;;;;;;0.63;0.63;;;;;;;;;;5010790;28;20482;-73
2022/11/28 09:49:00;;;;;;;0.70;0.70;;;;;;;;;;5025589;28;20444;-76
2022/11/28 09:51:30;;;;;;;0.60;0.60;;;;;;;;;;4999873;28;20464;-75
2022/11/28 09:54:01;;;;;;;0.60;0.60;;;;;;;;;;5024540;28;20846;-74
2022/11/28 09:56:28;;;;;;;0.70;0.70;;;;;;;;;;4996237;28;20429;-75
2022/11/28 09:58:57;;;;;;;0.60;0.60;;;;;;;;;;5021551;28;20451;-75
2022/11/28 10:01:30;;;;;;;0.60;0.60;;;;;;;;;;5007513;28;20453;-74
2022/11/28 10:04:01;;;;;;;0.90;0.90;;;;;;;;;;5021122;28;20453;-73
2022/11/28 10:06:33;;;;;;;0.60;0.60;;;;;;;;;;5005127;28;20956;-77
2022/11/28 10:09:14;;;;;;;0.60;0.60;;;;;;;;;;5006796;28;20962;-74
2022/11/28 10:11:46;;;;;;;0.60;0.60;;;;;;;;;;5023667;28;20432;-75
2022/11/28 10:14:31;;;;;;;0.60;0.60;;;;;;;;;;5023376;28;20499;-74
2022/11/28 10:17:03;;;;;;;0.60;0.50;;;;;;;;;;4998814;28;20493;-76
2022/11/28 10:19:32;;;;;;;0.60;0.60;;;;;;;;;;4993327;28;20516;-76
2022/11/28 10:22:25;;;;;;;0.70;0.70;;;;;;;;;;5024159;28;20434;-77
2022/11/28 10:24:53;;;;;;;0.60;0.60;;;;;;;;;;5021531;28;20452;-75
2022/11/28 10:27:24;;;;;;;0.60;0.60;;;;;;;;;;5023667;28;20979;-74
2022/11/28 10:29:56;;;;;;;0.60;0.60;;;;;;;;;;5022567;28;21045;-74
2022/11/28 10:32:31;;;;;;;0.80;0.80;;;;;;;;;;5024628;28;20462;-76
2022/11/28 10:35:00;;;;;;;0.60;0.60;;;;;;;;;;5022694;28;20500;-75
2022/11/28 10:37:27;;;;;;;0.90;0.90;;;;;;;;;;5022513;28;20534;-74
2022/11/28 10:39:55;;;;;;;0.60;0.50;;;;;;;;;;5007503;28;20462;-74
2022/11/28 10:42:25;;;;;;;0.60;0.50;;;;;;;;;;5021446;28;20567;-75
2022/11/28 10:44:59;;;;;;;0.60;0.60;;;;;;;;;;5007045;28;20463;-74
2022/11/28 10:47:38;;;;;;;0.60;0.60;;;;;;;;;;5024906;28;20454;-75
2022/11/28 10:50:11;;;;;;;0.70;0.70;;;;;;;;;;5009611;28;20483;-74
2022/11/28 10:52:43;;;;;;;0.60;0.60;;;;;;;;;;4997172;28;20496;-76
2022/11/28 10:55:19;;;;;;;0.60;0.60;;;;;;;;;;5005784;28;20934;-74
2022/11/28 10:57:49;;;;;;;0.60;0.50;;;;;;;;;;5020329;28;20457;-77
2022/11/28 11:00:19;;;;;;;0.60;0.60;;;;;;;;;;5022817;28;20494;-77
2022/11/28 11:02:48;;;;;;;0.63;0.63;;;;;;;;;;5006944;28;20471;-76
2022/11/28 11:05:18;;;;;;;0.60;0.60;;;;;;;;;;4997809;28;20442;-73
2022/11/28 11:07:49;;;;;;;0.60;0.60;;;;;;;;;;5023542;28;20804;-74
2022/11/28 11:10:18;;;;;;;0.60;0.57;;;;;;;;;;4987537;28;20454;-73
2022/11/28 11:12:45;;;;;;;0.60;0.60;;;;;;;;;;4996300;28;20554;-74
2022/11/28 11:15:17;;;;;;;1.03;0.90;;;;;;;;;;4976159;28;20912;-75
2022/11/28 11:17:43;;;;;;;0.70;0.70;;;;;;;;;;5022762;28;20490;-73
2022/11/28 11:20:32;;;;;;;0.60;0.60;;;;;;;;;;5007715;28;20473;-76
2022/11/28 11:23:02;;;;;;;0.60;0.50;;;;;;;;;;5020231;28;20509;-74
2022/11/28 11:25:30;;;;;;;0.60;0.60;;;;;;;;;;5023012;28;20514;-75
2022/11/28 11:28:01;;;;;;;0.60;0.60;;;;;;;;;;5001389;28;20462;-75
2022/11/28 11:30:29;;;;;;;0.60;0.60;;;;;;;;;;4996064;28;20444;-73
2022/11/28 11:32:57;;;;;;;0.60;0.60;;;;;;;;;;4990613;28;20483;-76
2022/11/28 11:35:27;;;;;;;0.77;0.77;;;;;;;;;;5022374;28;20443;-72
2022/11/28 11:38:13;;;;;;;0.60;0.60;;;;;;;;;;5001675;28;21251;-74
2022/11/28 11:40:40;;;;;;;0.60;0.60;;;;;;;;;;5021213;28;20473;-75
2022/11/28 11:43:21;;;;;;;0.60;0.60;;;;;;;;;;4993018;28;21014;-75
2022/11/28 11:46:02;;;;;;;0.60;0.60;;;;;;;;;;4994163;28;20455;-77
2022/11/28 11:48:33;;;;;;;0.60;0.60;;;;;;;;;;5023360;28;20586;-75
2022/11/28 11:51:00;;;;;;;0.70;0.70;;;;;;;;;;5021258;28;20454;-76
2022/11/28 11:53:29;;;;;;;0.63;0.63;;;;;;;;;;5007653;28;20476;-76
2022/11/28 11:55:59;;;;;;;0.60;0.57;;;;;;;;;;4994693;28;20439;-76
2022/11/28 11:58:28;;;;;;;0.70;0.60;;;;;;;;;;5022763;28;20456;-77
2022/11/28 12:00:57;;;;;;;0.60;0.53;;;;;;;;;;5005653;28;20536;-78
2022/11/28 12:03:27;;;;;;;3.03;1.87;;;;;;;;;;4983920;28;21263;-78
2022/11/28 12:05:58;;;;;;;0.60;0.50;;;;;;;;;;5004229;28;20444;-78
2022/11/28 12:08:43;;;;;;;0.60;0.50;;;;;;;;;;5008660;28;20531;-78
2022/11/28 12:11:13;;;;;;;0.80;0.80;;;;;;;;;;4981189;28;20458;-79
2022/11/28 12:13:41;;;;;;;0.60;0.60;;;;;;;;;;5021979;28;20506;-79
2022/11/28 12:16:17;;;;;;;0.60;0.60;;;;;;;;;;5006598;28;20442;-78
2022/11/28 12:18:48;;;;;;;0.80;0.80;;;;;;;;;;4991726;28;20516;-77
2022/11/28 12:21:21;;;;;;;1.03;0.93;;;;;;;;;;5022533;28;20541;-79
2022/11/28 12:23:57;;;;;;;0.60;0.60;;;;;;;;;;5008897;28;20451;-78
2022/11/28 12:26:28;;;;;;;0.60;0.60;;;;;;;;;;5009221;28;20594;-78
2022/11/28 12:29:00;;;;;;;0.60;0.60;;;;;;;;;;5026630;28;20524;-78
2022/11/28 12:31:35;;;;;;;0.60;0.60;;;;;;;;;;5010847;28;20866;-78
2022/11/28 12:34:07;;;;;;;1.43;1.33;;;;;;;;;;5011673;28;20483;-79
2022/11/28 12:36:36;;;;;;;0.97;0.97;;;;;;;;;;4999236;28;20799;-78
2022/11/28 12:39:13;;;;;;;1.00;1.00;;;;;;;;;;5023790;28;20570;-79
2022/11/28 12:42:04;;;;;;;1.47;1.17;;;;;;;;;;5025026;28;20435;-77
2022/11/28 12:44:38;;;;;;;0.60;0.60;;;;;;;;;;5025862;28;20455;-78
2022/11/28 12:47:11;;;;;;;0.63;0.63;;;;;;;;;;4995893;28;20436;-78
2022/11/28 12:49:43;;;;;;;0.60;0.60;;;;;;;;;;5010349;28;20444;-77
2022/11/28 12:52:16;;;;;;;0.60;0.60;;;;;;;;;;5010550;28;20497;-78
2022/11/28 12:55:00;;;;;;;0.60;0.50;;;;;;;;;;5009750;28;20481;-77
2022/11/28 12:57:32;;;;;;;0.60;0.60;;;;;;;;;;5009243;28;20499;-79
2022/11/28 13:00:01;;;;;;;0.60;0.60;;;;;;;;;;5001579;28;20425;-78
2022/11/28 13:02:41;;;;;;;0.60;0.60;;;;;;;;;;5009873;28;20427;-78
2022/11/28 13:05:18;;;;;;;0.70;0.70;;;;;;;;;;5006447;28;20440;-79
2022/11/28 13:07:57;;;;;;;0.70;0.70;;;;;;;;;;5023895;28;20535;-77
2022/11/28 13:10:29;;;;;;;0.70;0.70;;;;;;;;;;5025484;28;20529;-76
2022/11/28 13:12:59;;;;;;;0.70;0.70;;;;;;;;;;5024897;28;20538;-78
2022/11/28 13:15:34;;;;;;;0.60;0.60;;;;;;;;;;5000657;28;20452;-77
2022/11/28 13:18:02;;;;;;;0.73;0.73;;;;;;;;;;5022541;28;20479;-78
2022/11/28 13:20:34;;;;;;;1.10;1.00;;;;;;;;;;5025157;28;20444;-78
2022/11/28 13:23:05;;;;;;;0.60;0.60;;;;;;;;;;5011086;28;20467;-78
2022/11/28 13:25:39;;;;;;;0.60;0.60;;;;;;;;;;5026017;28;20461;-78
2022/11/28 13:28:07;;;;;;;1.10;0.90;;;;;;;;;;5025240;28;20458;-79
2022/11/28 13:30:37;;;;;;;0.60;0.60;;;;;;;;;;5010475;28;20427;-79
2022/11/28 13:33:07;;;;;;;0.90;0.90;;;;;;;;;;4999009;28;20517;-77
2022/11/28 13:35:34;;;;;;;1.23;1.13;;;;;;;;;;5007510;28;20450;-78
2022/11/28 13:38:04;;;;;;;0.60;0.50;;;;;;;;;;5009009;28;20434;-78
2022/11/28 13:40:54;;;;;;;0.60;0.60;;;;;;;;;;4995909;28;20527;-78
2022/11/28 13:43:24;;;;;;;2.40;2.20;;;;;;;;;;5024549;28;20515;-78
2022/11/28 13:45:51;;;;;;;0.70;0.70;;;;;;;;;;5008965;28;20426;-77
2022/11/28 13:48:37;;;;;;;0.60;0.57;;;;;;;;;;5000332;28;21013;-78
2022/11/28 13:51:25;;;;;;;0.90;0.90;;;;;;;;;;5025434;28;20986;-77
2022/11/28 13:54:17;;;;;;;0.60;0.60;;;;;;;;;;5023542;28;20574;-78
2022/11/28 13:56:46;;;;;;;0.97;0.97;;;;;;;;;;5006926;28;20445;-78
2022/11/28 13:59:15;;;;;;;0.90;0.90;;;;;;;;;;5023832;28;20482;-78
2022/11/28 14:01:43;;;;;;;0.60;0.60;;;;;;;;;;4994246;28;20464;-78
2022/11/28 14:04:12;;;;;;;0.70;0.70;;;;;;;;;;5009589;28;20448;-79
2022/11/28 14:06:44;;;;;;;0.67;0.67;;;;;;;;;;4994575;28;20881;-77
2022/11/28 14:09:23;;;;;;;1.47;1.37;;;;;;;;;;5001958;28;20447;-78
2022/11/28 14:11:57;;;;;;;0.70;0.70;;;;;;;;;;5024307;28;20811;-78
2022/11/28 14:14:33;;;;;;;0.60;0.60;;;;;;;;;;4989511;28;20521;-78
2022/11/28 14:17:05;;;;;;;0.60;0.60;;;;;;;;;;4989202;28;20459;-78
2022/11/28 14:19:38;;;;;;;0.60;0.60;;;;;;;;;;5008472;28;20440;-78
2022/11/28 14:22:14;;;;;;;0.80;0.80;;;;;;;;;;5008725;28;20440;-77
2022/11/28 14:24:54;;;;;;;0.60;0.60;;;;;;;;;;5024618;28;20431;-76
2022/11/28 14:27:24;;;;;;;0.60;0.60;;;;;;;;;;5021927;28;20433;-78
2022/11/28 14:29:54;;;;;;;1.03;0.93;;;;;;;;;;5024318;28;20493;-77
2022/11/28 14:32:24;;;;;;;2.13;1.93;;;;;;;;;;5008051;28;20483;-77
2022/11/28 14:34:58;;;;;;;0.70;0.70;;;;;;;;;;5006058;28;20560;-77
2022/11/28 14:37:34;;;;;;;0.60;0.57;;;;;;;;;;5022947;28;20487;-76
2022/11/28 14:40:02;;;;;;;0.60;0.53;;;;;;;;;;5020310;28;20530;-78
2022/11/28 14:42:37;;;;;;;0.60;0.60;;;;;;;;;;5024052;28;20527;-75
2022/11/28 14:45:43;;;;;;;0.60;0.60;;;;;;;;;;5023127;28;20538;-76
2022/11/28 14:48:16;;;;;;;0.70;0.70;;;;;;;;;;5022915;28;20509;-77
2022/11/28 14:50:46;;;;;;;0.70;0.70;;;;;;;;;;5023542;28;20515;-77
2022/11/28 14:53:35;;;;;;;0.70;0.70;;;;;;;;;;5024167;28;20936;-77
2022/11/28 14:56:09;;;;;;;0.60;0.60;;;;;;;;;;5017483;28;20439;-77
2022/11/28 14:58:37;;;;;;;0.60;0.60;;;;;;;;;;4999841;28;20455;-78
2022/11/28 15:01:07;;;;;;;3.17;1.87;;;;;;;;;;5006792;28;21023;-77
2022/11/28 15:03:37;;;;;;;0.67;0.67;;;;;;;;;;5007257;28;20499;-77
2022/11/28 15:06:14;;;;;;;0.60;0.60;;;;;;;;;;5022861;28;20454;-77
2022/11/28 15:08:58;;;;;;;0.60;0.57;;;;;;;;;;5023505;28;20444;-76
2022/11/28 15:11:34;;;;;;;0.90;0.90;;;;;;;;;;5006262;28;20457;-76
2022/11/28 15:14:14;;;;;;;0.60;0.60;;;;;;;;;;5024104;28;20562;-77
2022/11/28 15:16:44;;;;;;;1.23;1.13;;;;;;;;;;5006036;28;20446;-77